Ashburn Park, Illinois
Current Conditions -  °F | °C
As of 2:53 PM on Friday 24 Oct 2014 (Local Time) from KMDW Reporting Station
Scattered Clouds Scattered Clouds  
Wind Chill: 67°   Ceiling: Unl
Heat Index: 67°   Visibility: 10mi
Dew Point: 50°   Wind: 6mph
Humidity: 54%   Direction: 280°W
Pressure: 29.97"   Gusts: NA
Location:  41.7473°N, 87.7132°W
Report Text: KMDW 241953Z 28005KT 10SM FEW027 SCT200 SCT250 19/10 A2997 RMK AO2 SLP146 T01940100
Loading
Personal Weather Stations






























Interactive Weather Map
Tropical Storm Tracking
New forecast layout! Learn more

10-Day Weather Forecast

Advertisements
Track Severe Weather on mobile